createdAt,value
2022-10-31T00:01:36.547Z,14.30
2022-10-31T00:04:04.460Z,14.20
2022-10-31T00:06:31.925Z,14.20
2022-10-31T00:09:04.541Z,14.20
2022-10-31T00:11:36.247Z,14.20
2022-10-31T00:14:03.559Z,14.20
2022-10-31T00:16:33.669Z,14.10
2022-10-31T00:19:03.491Z,14.10
2022-10-31T00:21:36.687Z,14.00
2022-10-31T00:24:03.985Z,14.00
2022-10-31T00:26:34.443Z,13.90
2022-10-31T00:29:02.089Z,13.90
2022-10-31T00:31:30.083Z,13.80
2022-10-31T00:34:00.002Z,13.80
2022-10-31T00:36:27.238Z,13.80
2022-10-31T00:38:56.891Z,13.70
2022-10-31T00:41:24.293Z,13.70
2022-10-31T00:43:53.508Z,13.70
2022-10-31T00:46:20.732Z,13.70
2022-10-31T00:48:47.858Z,13.60
2022-10-31T00:51:15.057Z,13.70
2022-10-31T00:53:42.067Z,13.60
2022-10-31T00:56:11.905Z,13.60
2022-10-31T00:58:41.309Z,13.60
2022-10-31T01:01:11.259Z,13.60
2022-10-31T01:03:38.428Z,13.60
2022-10-31T01:06:11.293Z,13.60
2022-10-31T01:08:39.430Z,13.60
2022-10-31T01:11:06.868Z,13.60
2022-10-31T01:13:35.224Z,13.60
2022-10-31T01:16:05.960Z,13.60
2022-10-31T01:18:38.522Z,13.60
2022-10-31T01:21:08.306Z,13.60
2022-10-31T01:23:38.932Z,13.60
2022-10-31T01:26:10.609Z,13.60
2022-10-31T01:28:40.547Z,13.60
2022-10-31T01:31:09.281Z,13.60
2022-10-31T01:33:39.786Z,13.50
2022-10-31T01:36:23.696Z,13.50
2022-10-31T01:38:52.333Z,13.40
2022-10-31T01:41:23.016Z,13.30
2022-10-31T01:43:59.485Z,13.20
2022-10-31T01:46:39.629Z,13.20
2022-10-31T01:49:16.033Z,13.20
2022-10-31T01:51:48.871Z,13.10
2022-10-31T01:54:21.755Z,13.10
2022-10-31T01:56:56.852Z,13.10
2022-10-31T01:59:31.338Z,13.10
2022-10-31T02:01:58.723Z,13.10
2022-10-31T02:04:30.119Z,13.20
2022-10-31T02:07:03.701Z,13.30
2022-10-31T02:09:32.966Z,13.40
2022-10-31T02:12:01.017Z,13.40
2022-10-31T02:14:31.281Z,13.40
2022-10-31T02:17:02.930Z,13.40
2022-10-31T02:19:39.156Z,13.40
2022-10-31T02:22:17.274Z,13.40
2022-10-31T02:25:23.141Z,13.30
2022-10-31T02:28:09.241Z,13.30
2022-10-31T02:31:11.723Z,13.20
2022-10-31T02:33:51.943Z,13.20
2022-10-31T02:36:37.257Z,13.10
2022-10-31T02:39:07.630Z,13.10
2022-10-31T02:41:57.120Z,13.10
2022-10-31T02:44:39.219Z,13.10
2022-10-31T02:47:14.943Z,13.10
2022-10-31T02:50:02.497Z,13.10
2022-10-31T02:52:33.240Z,13.10
2022-10-31T02:55:25.473Z,13.10
2022-10-31T02:58:03.014Z,13.10
2022-10-31T03:03:39.999Z,13.10
2022-10-31T03:06:12.082Z,13.10
2022-10-31T03:08:41.912Z,13.10
2022-10-31T03:11:10.682Z,13.00
2022-10-31T03:13:57.777Z,12.90
2022-10-31T03:16:31.703Z,12.90
2022-10-31T03:19:32.538Z,12.90
2022-10-31T03:22:11.471Z,12.80
2022-10-31T03:24:42.695Z,12.80
2022-10-31T03:27:12.665Z,12.80
2022-10-31T03:29:42.665Z,12.80
2022-10-31T03:32:16.068Z,12.70
2022-10-31T03:34:45.015Z,12.70
2022-10-31T03:37:17.717Z,12.70
2022-10-31T03:39:49.745Z,12.60
2022-10-31T03:42:21.781Z,12.60
2022-10-31T03:45:04.661Z,12.60
2022-10-31T03:47:32.651Z,12.60
2022-10-31T03:50:00.375Z,12.60
2022-10-31T03:52:39.954Z,12.60
2022-10-31T03:55:11.953Z,12.60
2022-10-31T03:57:51.436Z,12.70
2022-10-31T04:00:23.404Z,12.70
2022-10-31T04:03:14.493Z,12.70
2022-10-31T04:05:47.125Z,12.80
2022-10-31T04:08:21.668Z,12.80
2022-10-31T04:10:50.923Z,12.80
2022-10-31T04:13:26.657Z,12.80
2022-10-31T04:15:55.975Z,12.90
2022-10-31T04:18:27.022Z,12.90
2022-10-31T04:21:08.266Z,12.90
2022-10-31T04:23:36.669Z,12.90
2022-10-31T04:26:06.021Z,12.90
2022-10-31T04:28:35.477Z,12.90
2022-10-31T04:31:02.429Z,12.90
2022-10-31T04:33:29.864Z,12.90
2022-10-31T04:35:57.411Z,13.00
2022-10-31T04:38:26.853Z,13.00
2022-10-31T04:40:54.021Z,13.00
2022-10-31T04:43:21.275Z,13.10
2022-10-31T04:45:52.773Z,13.10
2022-10-31T04:48:20.187Z,13.10
2022-10-31T04:50:47.309Z,13.10
2022-10-31T04:53:14.593Z,13.10
2022-10-31T04:55:44.362Z,13.10
2022-10-31T04:58:11.877Z,13.10
2022-10-31T05:00:39.092Z,13.10
2022-10-31T05:03:08.693Z,13.10
2022-10-31T05:05:35.780Z,13.10
2022-10-31T05:08:03.197Z,13.00
2022-10-31T05:10:31.889Z,13.00
2022-10-31T05:13:01.879Z,12.90
2022-10-31T05:15:29.642Z,12.80
2022-10-31T05:17:57.868Z,12.80
2022-10-31T05:20:27.463Z,12.80
2022-10-31T05:22:57.304Z,12.70
2022-10-31T05:25:26.947Z,12.70
2022-10-31T05:27:55.367Z,12.70
2022-10-31T05:30:25.327Z,12.60
2022-10-31T05:32:55.053Z,12.60
2022-10-31T05:35:24.799Z,12.50
2022-10-31T05:37:51.925Z,12.30
2022-10-31T05:40:20.950Z,12.30
2022-10-31T05:42:48.610Z,12.10
2022-10-31T05:45:17.769Z,12.00
2022-10-31T05:47:59.709Z,12.00
2022-10-31T05:50:29.606Z,11.90
2022-10-31T05:53:06.544Z,11.90
2022-10-31T05:55:33.898Z,11.90
2022-10-31T05:58:02.218Z,12.00
2022-10-31T06:00:32.443Z,12.10
2022-10-31T06:03:04.488Z,12.30
2022-10-31T06:05:34.909Z,12.70
2022-10-31T06:08:02.760Z,13.20
2022-10-31T06:10:30.367Z,13.70
2022-10-31T06:12:57.719Z,14.30
2022-10-31T06:15:27.256Z,15.00
2022-10-31T06:18:06.095Z,15.80
2022-10-31T06:20:34.135Z,16.70
2022-10-31T06:23:02.142Z,17.60
2022-10-31T06:25:32.230Z,18.60
2022-10-31T06:27:59.462Z,19.50
2022-10-31T06:30:26.977Z,20.40
2022-10-31T06:32:54.049Z,20.50
2022-10-31T06:35:24.238Z,20.00
2022-10-31T06:37:56.825Z,20.40
2022-10-31T06:40:26.526Z,21.70
2022-10-31T06:43:02.999Z,23.30
2022-10-31T06:45:32.939Z,24.90
2022-10-31T06:50:49.920Z,27.50
2022-10-31T06:53:17.146Z,28.70
2022-10-31T06:55:44.578Z,29.80
2022-10-31T06:58:12.317Z,30.80
2022-10-31T07:00:39.764Z,31.70
2022-10-31T07:03:13.427Z,32.50
2022-10-31T07:05:41.448Z,33.30
2022-10-31T07:08:11.363Z,34.00
2022-10-31T07:10:40.960Z,34.60
2022-10-31T07:15:40.576Z,36.00
2022-10-31T07:18:09.748Z,36.60
2022-10-31T07:20:39.612Z,37.40
2022-10-31T07:23:06.968Z,38.20
2022-10-31T07:25:36.667Z,38.60
2022-10-31T07:28:06.295Z,39.20
2022-10-31T07:30:34.036Z,39.90
2022-10-31T07:33:01.464Z,40.40
2022-10-31T07:35:30.051Z,41.00
2022-10-31T07:38:08.307Z,41.60
2022-10-31T07:40:35.728Z,42.00
2022-10-31T07:43:08.833Z,42.70
2022-10-31T07:45:41.073Z,43.40
2022-10-31T07:48:10.711Z,44.10
2022-10-31T07:50:38.174Z,44.60
2022-10-31T07:53:08.191Z,45.40
2022-10-31T07:55:36.216Z,46.00
2022-10-31T07:58:08.758Z,46.30
2022-10-31T08:00:37.775Z,46.70
2022-10-31T08:03:10.969Z,46.70
2022-10-31T08:05:38.839Z,46.80
2022-10-31T08:08:06.690Z,47.30
2022-10-31T08:10:34.988Z,47.90
2022-10-31T08:13:08.485Z,48.30
2022-10-31T08:15:36.267Z,48.60
2022-10-31T08:18:04.627Z,48.70
2022-10-31T08:20:32.042Z,48.70
2022-10-31T08:23:06.194Z,49.00
2022-10-31T08:25:38.559Z,49.10
2022-10-31T08:28:09.954Z,49.10
2022-10-31T08:30:38.294Z,49.30
2022-10-31T08:33:11.160Z,49.90
2022-10-31T08:35:41.378Z,49.90
2022-10-31T08:38:12.770Z,50.00
2022-10-31T08:40:42.833Z,50.50
2022-10-31T08:45:42.635Z,51.40
2022-10-31T08:50:42.808Z,51.90
2022-10-31T08:53:15.672Z,52.00
2022-10-31T08:55:44.420Z,52.10
2022-10-31T08:58:24.041Z,52.30
2022-10-31T09:00:53.719Z,52.70
2022-10-31T09:03:29.116Z,53.00
2022-10-31T09:05:59.144Z,53.00
2022-10-31T09:08:26.893Z,53.50
2022-10-31T09:10:59.783Z,53.70
2022-10-31T09:13:29.238Z,53.70
2022-10-31T09:15:58.035Z,53.90
2022-10-31T09:18:25.723Z,54.10
2022-10-31T09:20:53.078Z,54.10
2022-10-31T09:23:24.283Z,54.00
2022-10-31T09:25:54.020Z,54.00
2022-10-31T09:28:24.215Z,53.80
2022-10-31T09:30:55.372Z,53.80
2022-10-31T09:33:22.907Z,53.90
2022-10-31T09:35:52.667Z,54.00
2022-10-31T09:38:21.488Z,54.20
2022-10-31T09:40:51.840Z,54.20
2022-10-31T09:43:24.693Z,54.40
2022-10-31T09:46:09.627Z,54.40
2022-10-31T09:48:36.626Z,54.60
2022-10-31T09:51:21.281Z,54.40
2022-10-31T09:54:20.346Z,54.10
2022-10-31T09:56:48.190Z,54.10
2022-10-31T09:59:40.075Z,54.20
2022-10-31T10:02:47.503Z,54.20
2022-10-31T10:05:23.381Z,54.20
2022-10-31T10:08:01.349Z,54.20
2022-10-31T10:10:48.166Z,53.70
2022-10-31T10:13:40.942Z,53.10
2022-10-31T10:16:30.322Z,52.60
2022-10-31T10:19:34.080Z,52.50
2022-10-31T10:22:27.555Z,52.60
2022-10-31T10:25:01.037Z,52.90
2022-10-31T10:27:55.123Z,53.00
2022-10-31T10:30:45.830Z,53.10
2022-10-31T10:33:21.761Z,53.10
2022-10-31T10:35:58.738Z,53.10
2022-10-31T10:38:31.626Z,53.10
2022-10-31T10:41:05.752Z,53.00
2022-10-31T10:43:39.861Z,52.90
2022-10-31T10:46:28.598Z,52.40
2022-10-31T10:49:01.581Z,52.10
2022-10-31T10:54:46.972Z,51.10
2022-10-31T10:57:38.057Z,51.30
2022-10-31T11:00:25.371Z,51.60
2022-10-31T11:02:53.456Z,51.50
2022-10-31T11:05:31.243Z,51.40
2022-10-31T11:07:58.625Z,51.10
2022-10-31T11:15:36.608Z,43.60
2022-10-31T11:18:04.508Z,40.80
2022-10-31T11:20:37.171Z,38.40
2022-10-31T11:23:26.048Z,36.50
2022-10-31T11:26:00.340Z,34.80
2022-10-31T11:28:29.610Z,33.50
2022-10-31T11:31:00.084Z,32.40
2022-10-31T11:33:33.926Z,31.50
2022-10-31T11:36:15.493Z,30.60
2022-10-31T11:38:46.722Z,29.80
2022-10-31T11:41:17.942Z,29.00
2022-10-31T11:43:55.267Z,28.40
2022-10-31T11:46:47.883Z,27.90
2022-10-31T11:49:37.086Z,27.40
2022-10-31T11:52:19.362Z,26.90
2022-10-31T11:54:56.720Z,26.60
2022-10-31T11:57:31.287Z,26.30
2022-10-31T12:00:02.937Z,26.10
2022-10-31T12:02:36.743Z,25.90
2022-10-31T12:05:21.215Z,25.80
2022-10-31T12:07:49.208Z,25.60
2022-10-31T12:10:17.118Z,25.40
2022-10-31T12:12:52.873Z,25.30
2022-10-31T12:15:27.744Z,25.20
2022-10-31T12:20:41.230Z,24.90
2022-10-31T12:23:29.135Z,24.70
2022-10-31T12:26:13.983Z,24.50
2022-10-31T12:29:28.851Z,24.40
2022-10-31T12:31:56.129Z,24.30
2022-10-31T12:34:38.428Z,24.20
2022-10-31T12:37:05.707Z,24.20
2022-10-31T12:39:47.622Z,24.20
2022-10-31T12:42:37.848Z,24.10
2022-10-31T12:45:33.880Z,24.00
2022-10-31T12:48:16.134Z,24.00
2022-10-31T12:50:52.266Z,23.90
2022-10-31T12:53:27.485Z,23.90
2022-10-31T12:56:31.260Z,23.90
2022-10-31T12:59:20.664Z,23.90
2022-10-31T13:02:14.119Z,23.80
2022-10-31T13:05:07.334Z,23.70
2022-10-31T13:07:39.919Z,23.60
2022-10-31T13:10:18.717Z,23.60
2022-10-31T13:12:50.327Z,23.50
2022-10-31T13:15:24.515Z,23.40
2022-10-31T13:17:56.705Z,23.40
2022-10-31T13:20:43.153Z,23.30
2022-10-31T13:23:51.263Z,23.20
2022-10-31T13:26:48.415Z,23.20
2022-10-31T13:29:26.894Z,23.20
2022-10-31T13:32:01.405Z,23.10
2022-10-31T13:34:41.550Z,23.00
2022-10-31T13:37:25.870Z,22.90
2022-10-31T13:40:23.693Z,22.80
2022-10-31T13:43:09.814Z,22.60
2022-10-31T13:45:36.954Z,22.50
2022-10-31T13:48:16.470Z,22.30
2022-10-31T13:50:56.412Z,22.20
2022-10-31T13:53:45.543Z,22.10
2022-10-31T13:56:20.246Z,22.00
2022-10-31T13:59:16.270Z,21.90
2022-10-31T14:02:13.728Z,21.80
2022-10-31T14:04:57.567Z,21.70
2022-10-31T14:07:26.287Z,21.70
2022-10-31T14:10:07.330Z,21.60
2022-10-31T14:12:53.109Z,21.50
2022-10-31T14:15:23.549Z,21.40
2022-10-31T14:18:03.630Z,21.30
2022-10-31T14:20:40.643Z,21.20
2022-10-31T14:23:31.999Z,21.10
2022-10-31T14:26:20.381Z,21.10
2022-10-31T14:28:49.035Z,21.00
2022-10-31T14:31:34.989Z,20.90
2022-10-31T14:34:17.086Z,20.80
2022-10-31T14:36:53.021Z,20.70
2022-10-31T14:39:25.702Z,20.60
2022-10-31T14:42:05.391Z,20.50
2022-10-31T14:44:42.582Z,20.30
2022-10-31T14:48:08.151Z,20.30
2022-10-31T14:50:52.288Z,20.10
2022-10-31T14:53:27.623Z,20.10
2022-10-31T14:55:56.703Z,20.00
2022-10-31T14:58:42.668Z,19.90
2022-10-31T15:01:29.248Z,19.80
2022-10-31T15:04:27.652Z,19.80
2022-10-31T15:07:11.421Z,19.60
2022-10-31T15:09:39.028Z,19.60
2022-10-31T15:12:31.361Z,19.50
2022-10-31T15:15:11.381Z,19.40
2022-10-31T15:17:45.517Z,19.30
2022-10-31T15:20:21.447Z,19.20
2022-10-31T15:22:49.338Z,19.10
2022-10-31T15:25:24.350Z,19.00
2022-10-31T15:27:52.866Z,18.90
2022-10-31T15:30:24.902Z,18.90
2022-10-31T15:32:58.226Z,18.80
2022-10-31T15:35:29.515Z,18.70
2022-10-31T15:37:58.820Z,18.60
2022-10-31T15:40:30.002Z,18.60
2022-10-31T15:43:05.946Z,18.50
2022-10-31T15:45:33.191Z,18.50
2022-10-31T15:48:03.296Z,18.50
2022-10-31T15:50:38.420Z,18.30
2022-10-31T15:53:07.411Z,18.30
2022-10-31T15:55:45.780Z,18.20
2022-10-31T15:58:17.256Z,18.10
2022-10-31T16:00:44.701Z,18.10
2022-10-31T16:03:14.691Z,18.00
2022-10-31T16:05:47.908Z,17.90
2022-10-31T16:08:30.262Z,17.90
2022-10-31T16:11:02.747Z,17.80
2022-10-31T16:13:32.992Z,17.70
2022-10-31T16:18:54.992Z,17.60
2022-10-31T16:21:33.953Z,17.50
2022-10-31T16:24:21.577Z,17.40
2022-10-31T16:26:54.594Z,17.40
2022-10-31T16:29:33.809Z,17.40
2022-10-31T16:32:01.104Z,17.30
2022-10-31T16:34:28.417Z,17.20
2022-10-31T16:36:55.431Z,17.10
2022-10-31T16:39:23.009Z,17.00
2022-10-31T16:41:53.496Z,16.90
2022-10-31T16:44:24.807Z,16.80
2022-10-31T16:47:14.181Z,16.80
2022-10-31T16:49:47.349Z,16.70
2022-10-31T16:52:14.688Z,16.70
2022-10-31T16:54:41.980Z,16.60
2022-10-31T16:57:18.402Z,16.60
2022-10-31T16:59:49.238Z,16.60
2022-10-31T17:02:17.555Z,16.50
2022-10-31T17:04:44.899Z,16.40
2022-10-31T17:07:14.601Z,16.30
2022-10-31T17:09:41.903Z,16.30
2022-10-31T17:12:17.649Z,16.20
2022-10-31T17:14:49.060Z,16.10
2022-10-31T17:17:16.183Z,16.10
2022-10-31T17:19:43.502Z,16.00
2022-10-31T17:22:15.056Z,15.90
2022-10-31T17:24:44.919Z,15.80
2022-10-31T17:27:14.626Z,15.80
2022-10-31T17:29:41.871Z,15.70
2022-10-31T17:32:11.365Z,15.60
2022-10-31T17:34:43.390Z,15.60
2022-10-31T17:37:11.021Z,15.50
2022-10-31T17:39:38.336Z,15.50
2022-10-31T17:42:07.801Z,15.50
2022-10-31T17:44:35.211Z,15.40
2022-10-31T17:47:07.037Z,15.30
2022-10-31T17:49:34.433Z,15.30
2022-10-31T17:52:01.431Z,15.30
2022-10-31T17:54:31.052Z,15.30
2022-10-31T17:56:58.245Z,15.20
2022-10-31T17:59:25.498Z,15.20
2022-10-31T18:01:55.360Z,15.20
2022-10-31T18:04:22.708Z,15.10
2022-10-31T18:06:49.777Z,15.00
2022-10-31T18:09:20.301Z,15.00
2022-10-31T18:11:47.300Z,14.90
2022-10-31T18:14:14.862Z,14.90
2022-10-31T18:16:44.727Z,14.90
2022-10-31T18:19:15.641Z,14.90
2022-10-31T18:21:44.966Z,14.90
2022-10-31T18:24:12.769Z,14.80
2022-10-31T18:26:42.281Z,14.80
2022-10-31T18:29:14.396Z,14.80
2022-10-31T18:31:43.828Z,14.70
2022-10-31T18:34:11.055Z,14.70
2022-10-31T18:36:38.194Z,14.70
2022-10-31T18:39:06.369Z,14.60
2022-10-31T18:41:33.564Z,14.60
2022-10-31T18:44:05.784Z,14.50
2022-10-31T18:46:34.266Z,14.50
2022-10-31T18:49:04.693Z,14.40
2022-10-31T18:51:31.892Z,14.40
2022-10-31T18:54:01.210Z,14.40
2022-10-31T18:56:29.950Z,14.30
2022-10-31T18:59:00.969Z,14.20
2022-10-31T19:01:31.024Z,14.20
2022-10-31T19:04:01.495Z,14.30
2022-10-31T19:06:33.817Z,14.20
2022-10-31T19:09:07.354Z,14.20
2022-10-31T19:11:35.464Z,14.10
2022-10-31T19:14:05.903Z,14.10
2022-10-31T19:16:36.578Z,14.10
2022-10-31T19:19:04.011Z,14.00
2022-10-31T19:21:31.638Z,14.00
2022-10-31T19:24:00.229Z,14.00
2022-10-31T19:26:28.164Z,14.00
2022-10-31T19:28:56.452Z,14.00
2022-10-31T19:31:26.053Z,14.00
2022-10-31T19:33:53.735Z,14.00
2022-10-31T19:36:23.488Z,14.00
2022-10-31T19:38:53.570Z,14.00
2022-10-31T19:41:26.461Z,14.10
2022-10-31T19:43:54.621Z,14.10
2022-10-31T19:46:40.410Z,14.00
2022-10-31T19:49:11.331Z,14.00
2022-10-31T19:51:40.137Z,14.00
2022-10-31T19:54:07.584Z,14.00
2022-10-31T19:56:35.652Z,13.90
2022-10-31T19:59:03.003Z,13.90
2022-10-31T20:01:32.689Z,13.90
2022-10-31T20:04:00.022Z,13.90
2022-10-31T20:06:33.618Z,13.90
2022-10-31T20:09:06.166Z,13.80
2022-10-31T20:11:33.853Z,13.80
2022-10-31T20:14:01.035Z,13.80
2022-10-31T20:16:31.975Z,13.80
2022-10-31T20:18:59.915Z,13.80
2022-10-31T20:21:30.051Z,13.80
2022-10-31T20:24:01.591Z,13.80
2022-10-31T20:26:32.907Z,13.80
2022-10-31T20:29:01.763Z,13.80
2022-10-31T20:31:32.935Z,13.80
2022-10-31T20:34:00.376Z,13.80
2022-10-31T20:36:30.033Z,13.80
2022-10-31T20:38:58.148Z,13.70
2022-10-31T20:41:25.367Z,13.70
2022-10-31T20:43:52.932Z,13.70
2022-10-31T20:46:24.610Z,13.70
2022-10-31T20:48:54.744Z,13.60
2022-10-31T20:51:27.219Z,13.60
2022-10-31T20:53:58.186Z,13.60
2022-10-31T20:56:28.598Z,13.60
2022-10-31T20:58:57.090Z,13.50
2022-10-31T21:01:29.238Z,13.50
2022-10-31T21:03:59.228Z,13.50
2022-10-31T21:06:29.798Z,13.60
2022-10-31T21:08:58.058Z,13.60
2022-10-31T21:11:27.225Z,13.60
2022-10-31T21:13:54.965Z,13.60
2022-10-31T21:16:23.284Z,13.60
2022-10-31T21:18:51.338Z,13.60
2022-10-31T21:21:19.958Z,13.60
2022-10-31T21:23:57.401Z,13.60
2022-10-31T21:26:27.104Z,13.60
2022-10-31T21:28:58.679Z,13.60
2022-10-31T21:31:29.021Z,13.60
2022-10-31T21:33:56.642Z,13.60
2022-10-31T21:36:26.263Z,13.60
2022-10-31T21:38:55.665Z,13.60
2022-10-31T21:41:24.339Z,13.60
2022-10-31T21:43:53.057Z,13.50
2022-10-31T21:46:31.443Z,13.50
2022-10-31T21:49:01.669Z,13.50
2022-10-31T21:51:32.509Z,13.50
2022-10-31T21:54:00.377Z,13.50
2022-10-31T21:56:27.715Z,13.40
2022-10-31T21:58:57.478Z,13.40
2022-10-31T22:01:26.447Z,13.40
2022-10-31T22:03:56.623Z,13.40
2022-10-31T22:06:24.511Z,13.30
2022-10-31T22:08:51.698Z,13.20
2022-10-31T22:11:19.331Z,13.10
2022-10-31T22:13:50.377Z,13.10
2022-10-31T22:16:19.710Z,13.00
2022-10-31T22:18:55.800Z,12.90
2022-10-31T22:21:29.076Z,12.80
2022-10-31T22:24:03.230Z,12.80
2022-10-31T22:26:33.044Z,12.70
2022-10-31T22:29:04.105Z,12.70
2022-10-31T22:31:32.907Z,12.70
2022-10-31T22:34:00.346Z,12.60
2022-10-31T22:36:30.192Z,12.60
2022-10-31T22:39:00.408Z,12.60
2022-10-31T22:41:32.396Z,12.60
2022-10-31T22:44:04.826Z,12.60
2022-10-31T22:46:35.642Z,12.60
2022-10-31T22:49:09.802Z,12.50
2022-10-31T22:51:39.346Z,12.60
2022-10-31T22:54:11.443Z,12.60
2022-10-31T22:56:39.194Z,12.60
2022-10-31T22:59:06.240Z,12.70
2022-10-31T23:01:34.215Z,12.70
2022-10-31T23:04:02.096Z,12.70
2022-10-31T23:06:31.349Z,12.70
2022-10-31T23:09:03.688Z,12.70
2022-10-31T23:11:37.783Z,12.70
2022-10-31T23:14:10.929Z,12.70
2022-10-31T23:16:41.885Z,12.70
2022-10-31T23:19:10.430Z,12.80
2022-10-31T23:21:42.579Z,12.90
2022-10-31T23:24:12.812Z,12.90
2022-10-31T23:26:42.632Z,13.00
2022-10-31T23:29:10.173Z,13.10
2022-10-31T23:31:37.718Z,13.30
2022-10-31T23:34:04.902Z,13.30
2022-10-31T23:36:36.874Z,13.40
2022-10-31T23:39:04.035Z,13.40
2022-10-31T23:41:35.731Z,13.40
2022-10-31T23:44:05.525Z,13.40
2022-10-31T23:46:35.127Z,13.30
2022-10-31T23:49:06.833Z,13.20
2022-10-31T23:51:36.573Z,13.30
2022-10-31T23:54:06.172Z,13.20
2022-10-31T23:56:33.646Z,13.20
2022-10-31T23:59:01.107Z,13.10
